KCAR

Caribou Municipal Airport

Caribou, Maine, USA
METAR KCAR 190854Z AUTO 01008KT 10SM SCT022 OVC034 08/06 A2998 RMK AO2 SLP159 T00830061 53012
Observed Flight Rules
Sep-19 @ 08:54 UTC (11 minutes ago) Visual Flight Rules
Wind Visibility Clouds
10° at 8 knots 10 miles
  • Scattered at 2,200' AGL
  • Overcast at 3,400' AGL
Temperatures Readings
Current 8°C / 46°F
Dewpoint 6°C / 43°F
Humidity 87%
Altimeter 29.98" Hg
Pressure 1015.9 hPa
Elevation 191
METAR KCAR 190854Z AUTO 01008KT 10SM SCT022 OVC034 08/06 A2998 RMK AO2 SLP159 T00830061 53012
Observed Flight Rules
Sep-19 @ 08:54 UTC
(11 minutes ago)
VFR
Wind Visibility
10° at 8 knots 10 miles
Clouds
  • Scattered at 2,200' AGL
  • Overcast at 3,400' AGL
Temperature Dewpoint
8°C / 46°F 6°C / 43°F
Humidity Altimeter Pressure
87% 29.98" Hg 1015.9 hPa